createdAt,value
2018-01-14T00:00:44.872Z,102680.14
2018-01-14T00:01:49.432Z,102686.56
2018-01-14T00:02:53.716Z,102680.92
2018-01-14T00:03:58.466Z,102678.57
2018-01-14T00:05:02.699Z,102681.45
2018-01-14T00:06:06.936Z,102673.73
2018-01-14T00:07:11.151Z,102674.98
2018-01-14T00:08:16.365Z,102671.55
2018-01-14T00:09:20.706Z,102672.00
2018-01-14T00:10:24.906Z,102665.41
2018-01-14T00:11:29.211Z,102670.30
2018-01-14T00:12:33.430Z,102667.36
2018-01-14T00:13:37.735Z,102669.23
2018-01-14T00:14:42.350Z,102669.59
2018-01-14T00:15:47.119Z,102664.40
2018-01-14T00:16:51.397Z,102658.83
2018-01-14T00:17:55.928Z,102653.95
2018-01-14T00:19:00.192Z,102653.14
2018-01-14T00:20:04.448Z,102656.41
2018-01-14T00:21:08.714Z,102656.64
2018-01-14T00:22:13.738Z,102655.75
2018-01-14T00:23:18.047Z,102656.67
2018-01-14T00:24:22.332Z,102653.87
2018-01-14T00:25:26.680Z,102648.17
2018-01-14T00:26:30.896Z,102654.06
2018-01-14T00:27:35.387Z,102648.09
2018-01-14T00:28:39.650Z,102648.70
2018-01-14T00:29:43.880Z,102652.00
2018-01-14T00:30:48.381Z,102643.14
2018-01-14T00:31:52.826Z,102646.58
2018-01-14T00:32:56.993Z,102652.15
2018-01-14T00:34:01.734Z,102647.94
2018-01-14T00:35:06.325Z,102646.11
2018-01-14T00:36:10.625Z,102657.98
2018-01-14T00:37:14.911Z,102645.94
2018-01-14T00:38:19.174Z,102656.86
2018-01-14T00:39:23.374Z,102657.82
2018-01-14T00:40:27.974Z,102659.67
2018-01-14T00:41:32.817Z,102660.60
2018-01-14T00:42:37.148Z,102656.60
2018-01-14T00:43:41.400Z,102656.25
2018-01-14T00:44:46.171Z,102667.68
2018-01-14T00:45:50.484Z,102656.92
2018-01-14T00:46:55.701Z,102658.47
2018-01-14T00:47:59.905Z,102657.82
2018-01-14T00:49:04.093Z,102653.62
2018-01-14T00:50:08.418Z,102650.41
2018-01-14T00:51:12.804Z,102654.94
2018-01-14T00:52:17.086Z,102647.57
2018-01-14T00:53:21.343Z,102650.33
2018-01-14T00:54:25.545Z,102653.37
2018-01-14T00:55:29.723Z,102655.11
2018-01-14T00:56:34.115Z,102641.01
2018-01-14T00:57:38.307Z,102643.34
2018-01-14T00:58:42.474Z,102653.13
2018-01-14T00:59:47.715Z,102647.97
2018-01-14T01:00:52.478Z,102658.72
2018-01-14T01:01:56.939Z,102656.30
2018-01-14T01:03:01.195Z,102654.44
2018-01-14T01:04:05.374Z,102662.53
2018-01-14T01:05:09.675Z,102658.05
2018-01-14T01:06:14.275Z,102654.50
2018-01-14T01:07:18.573Z,102660.46
2018-01-14T01:08:22.896Z,102655.15
2018-01-14T01:09:27.067Z,102644.39
2018-01-14T01:10:31.268Z,102648.48
2018-01-14T01:11:35.628Z,102650.94
2018-01-14T01:12:41.098Z,102657.63
2018-01-14T01:13:45.288Z,102650.37
2018-01-14T01:14:50.277Z,102646.16
2018-01-14T01:15:54.556Z,102649.17
2018-01-14T01:16:58.806Z,102654.02
2018-01-14T01:18:03.011Z,102649.72
2018-01-14T01:19:07.466Z,102652.31
2018-01-14T01:20:11.679Z,102647.63
2018-01-14T01:21:15.876Z,102651.25
2018-01-14T01:22:20.139Z,102652.08
2018-01-14T01:23:24.318Z,102646.86
2018-01-14T01:24:28.663Z,102639.78
2018-01-14T01:25:33.025Z,102645.94
2018-01-14T01:26:37.171Z,102641.96
2018-01-14T01:27:41.427Z,102640.62
2018-01-14T01:28:45.703Z,102639.45
2018-01-14T01:29:49.950Z,102639.44
2018-01-14T01:30:54.945Z,102642.95
2018-01-14T01:31:59.346Z,102634.16
2018-01-14T01:33:03.703Z,102641.41
2018-01-14T01:34:08.078Z,102646.52
2018-01-14T01:35:12.255Z,102641.83
2018-01-14T01:36:16.536Z,102640.22
2018-01-14T01:37:21.063Z,102642.14
2018-01-14T01:38:25.392Z,102646.11
2018-01-14T01:39:29.662Z,102640.70
2018-01-14T01:40:33.896Z,102643.59
2018-01-14T01:41:38.059Z,102643.05
2018-01-14T01:42:42.366Z,102644.01
2018-01-14T01:43:47.741Z,102649.50
2018-01-14T01:44:51.926Z,102642.22
2018-01-14T01:45:56.280Z,102634.98
2018-01-14T01:47:00.481Z,102638.25
2018-01-14T01:48:04.748Z,102644.44
2018-01-14T01:49:09.065Z,102638.53
2018-01-14T01:50:13.275Z,102641.09
2018-01-14T01:51:17.559Z,102649.18
2018-01-14T01:52:21.750Z,102642.67
2018-01-14T01:53:26.077Z,102643.45
2018-01-14T01:54:30.296Z,102641.52
2018-01-14T01:55:34.516Z,102647.13
2018-01-14T01:56:39.158Z,102638.44
2018-01-14T01:57:44.238Z,102641.55
2018-01-14T01:58:48.549Z,102639.89
2018-01-14T01:59:52.726Z,102646.46
2018-01-14T02:00:57.213Z,102638.88
2018-01-14T02:02:02.003Z,102639.95
2018-01-14T02:03:06.262Z,102639.52
2018-01-14T02:04:10.471Z,102639.81
2018-01-14T02:05:14.642Z,102635.66
2018-01-14T02:06:18.976Z,102642.98
2018-01-14T02:07:23.230Z,102636.14
2018-01-14T02:08:27.440Z,102643.51
2018-01-14T02:09:31.673Z,102632.46
2018-01-14T02:10:35.864Z,102630.02
2018-01-14T02:11:41.296Z,102634.41
2018-01-14T02:12:46.454Z,102631.00
2018-01-14T02:13:51.032Z,102622.91
2018-01-14T02:14:55.357Z,102619.44
2018-01-14T02:15:59.600Z,102628.02
2018-01-14T02:17:03.769Z,102617.33
2018-01-14T02:18:07.983Z,102624.55
2018-01-14T02:19:12.515Z,102618.38
2018-01-14T02:20:20.139Z,102622.25
2018-01-14T02:21:24.379Z,102619.33
2018-01-14T02:22:28.596Z,102617.63
2018-01-14T02:23:32.814Z,102617.93
2018-01-14T02:24:37.025Z,102612.47
2018-01-14T02:25:41.666Z,102617.56
2018-01-14T02:26:46.706Z,102612.52
2018-01-14T02:27:50.882Z,102606.26
2018-01-14T02:28:55.280Z,102612.73
2018-01-14T02:29:59.494Z,102616.84
2018-01-14T02:31:03.744Z,102613.41
2018-01-14T02:32:08.221Z,102613.33
2018-01-14T02:33:12.380Z,102613.38
2018-01-14T02:34:16.526Z,102614.88
2018-01-14T02:35:20.758Z,102610.70
2018-01-14T02:36:24.958Z,102616.03
2018-01-14T02:37:29.177Z,102612.80
2018-01-14T02:38:33.368Z,102614.02
2018-01-14T02:39:37.545Z,102608.98
2018-01-14T02:40:41.714Z,102610.48
2018-01-14T02:41:46.623Z,102608.94
2018-01-14T02:42:51.099Z,102614.61
2018-01-14T02:45:05.309Z,102609.08
2018-01-14T02:46:09.760Z,102604.09
2018-01-14T02:47:14.110Z,102602.33
2018-01-14T02:48:18.388Z,102607.14
2018-01-14T02:49:22.598Z,102606.91
2018-01-14T02:50:27.085Z,102609.23
2018-01-14T02:51:31.368Z,102605.80
2018-01-14T02:52:35.584Z,102600.43
2018-01-14T02:53:40.018Z,102593.89
2018-01-14T02:54:44.375Z,102600.45
2018-01-14T02:55:48.606Z,102597.62
2018-01-14T02:56:52.901Z,102590.99
2018-01-14T02:57:57.149Z,102604.78
2018-01-14T02:59:01.452Z,102602.79
2018-01-14T03:00:07.640Z,102594.91
2018-01-14T03:01:12.229Z,102599.48
2018-01-14T03:02:16.794Z,102596.77
2018-01-14T03:03:20.909Z,102597.57
2018-01-14T03:04:25.117Z,102597.18
2018-01-14T03:05:29.409Z,102605.93
2018-01-14T03:06:33.603Z,102599.15
2018-01-14T03:07:37.839Z,102606.13
2018-01-14T03:08:42.039Z,102603.06
2018-01-14T03:09:46.187Z,102605.39
2018-01-14T03:10:50.424Z,102609.69
2018-01-14T03:11:54.543Z,102606.50
2018-01-14T03:12:58.834Z,102604.80
2018-01-14T03:14:03.043Z,102611.45
2018-01-14T03:15:08.080Z,102607.42
2018-01-14T03:16:12.655Z,102609.78
2018-01-14T03:17:16.938Z,102594.85
2018-01-14T03:18:21.063Z,102607.98
2018-01-14T03:19:25.296Z,102601.87
2018-01-14T03:20:29.911Z,102608.34
2018-01-14T03:21:34.106Z,102609.41
2018-01-14T03:22:38.428Z,102606.82
2018-01-14T03:23:42.597Z,102603.21
2018-01-14T03:24:46.737Z,102601.59
2018-01-14T03:25:51.089Z,102603.95
2018-01-14T03:26:55.650Z,102606.47
2018-01-14T03:27:59.878Z,102604.08
2018-01-14T03:29:04.022Z,102604.17
2018-01-14T03:30:08.252Z,102602.83
2018-01-14T03:31:13.103Z,102600.11
2018-01-14T03:32:17.338Z,102597.54
2018-01-14T03:33:21.797Z,102603.42
2018-01-14T03:34:25.996Z,102605.51
2018-01-14T03:35:30.182Z,102595.52
2018-01-14T03:36:34.365Z,102585.03
2018-01-14T03:37:38.632Z,102592.77
2018-01-14T03:38:43.836Z,102588.14
2018-01-14T03:39:49.357Z,102591.06
2018-01-14T03:40:53.537Z,102589.21
2018-01-14T03:41:57.675Z,102588.82
2018-01-14T03:43:01.911Z,102594.34
2018-01-14T03:44:07.335Z,102599.83
2018-01-14T03:45:13.533Z,102598.39
2018-01-14T03:46:18.106Z,102606.09
2018-01-14T03:47:22.398Z,102595.02
2018-01-14T03:48:26.607Z,102600.57
2018-01-14T03:49:30.781Z,102594.94
2018-01-14T03:50:34.920Z,102591.05
2018-01-14T03:51:39.074Z,102604.75
2018-01-14T03:52:44.242Z,102596.07
2018-01-14T03:53:48.975Z,102588.85
2018-01-14T03:54:53.134Z,102600.49
2018-01-14T03:55:57.276Z,102596.41
2018-01-14T03:57:01.464Z,102592.47
2018-01-14T03:58:05.657Z,102589.75
2018-01-14T03:59:10.107Z,102591.87
2018-01-14T04:00:16.285Z,102589.84
2018-01-14T04:01:20.490Z,102585.72
2018-01-14T04:02:24.691Z,102585.15
2018-01-14T04:03:28.861Z,102584.67
2018-01-14T04:04:33.077Z,102579.45
2018-01-14T04:05:37.274Z,102577.00
2018-01-14T04:06:42.321Z,102584.28
2018-01-14T04:07:47.523Z,102584.85
2018-01-14T04:08:51.745Z,102591.57
2018-01-14T04:09:55.984Z,102588.82
2018-01-14T04:11:00.490Z,102584.22
2018-01-14T04:12:04.603Z,102577.89
2018-01-14T04:13:08.811Z,102582.36
2018-01-14T04:14:13.093Z,102585.17
2018-01-14T04:15:17.529Z,102587.77
2018-01-14T04:16:22.085Z,102590.27
2018-01-14T04:17:26.292Z,102586.78
2018-01-14T04:18:30.610Z,102580.70
2018-01-14T04:19:34.780Z,102592.95
2018-01-14T04:20:39.145Z,102584.84
2018-01-14T04:21:43.793Z,102589.03
2018-01-14T04:22:48.148Z,102591.25
2018-01-14T04:23:52.765Z,102582.30
2018-01-14T04:24:57.082Z,102575.59
2018-01-14T04:26:01.418Z,102580.45
2018-01-14T04:27:05.634Z,102587.92
2018-01-14T04:28:09.783Z,102584.61
2018-01-14T04:29:14.392Z,102585.98
2018-01-14T04:30:18.748Z,102574.64
2018-01-14T04:31:22.894Z,102581.75
2018-01-14T04:32:27.027Z,102579.78
2018-01-14T04:33:31.304Z,102571.03
2018-01-14T04:34:35.561Z,102577.18
2018-01-14T04:35:40.108Z,102576.73
2018-01-14T04:36:45.070Z,102576.84
2018-01-14T04:37:49.362Z,102572.85
2018-01-14T04:38:53.509Z,102573.27
2018-01-14T04:39:57.718Z,102569.63
2018-01-14T04:41:01.885Z,102572.55
2018-01-14T04:42:06.399Z,102571.77
2018-01-14T04:43:10.575Z,102571.92
2018-01-14T04:44:14.745Z,102570.88
2018-01-14T04:45:19.258Z,102573.00
2018-01-14T04:46:23.445Z,102575.20
2018-01-14T04:47:27.682Z,102567.59
2018-01-14T04:48:32.176Z,102575.02
2018-01-14T04:49:36.377Z,102569.72
2018-01-14T04:50:40.615Z,102572.55
2018-01-14T04:51:44.835Z,102571.33
2018-01-14T04:52:49.132Z,102566.05
2018-01-14T04:53:53.271Z,102566.67
2018-01-14T04:54:58.086Z,102572.67
2018-01-14T04:56:02.264Z,102572.91
2018-01-14T04:57:06.459Z,102569.52
2018-01-14T04:58:10.694Z,102563.90
2018-01-14T04:59:14.844Z,102562.20
2018-01-14T05:00:19.212Z,102562.08
2018-01-14T05:01:23.420Z,102563.48
2018-01-14T05:02:27.525Z,102564.11
2018-01-14T05:03:31.735Z,102564.55
2018-01-14T05:04:36.540Z,102567.72
2018-01-14T05:05:40.734Z,102559.06
2018-01-14T05:06:46.089Z,102557.16
2018-01-14T05:07:50.407Z,102550.98
2018-01-14T05:08:54.629Z,102553.00
2018-01-14T05:09:58.813Z,102551.24
2018-01-14T05:11:03.016Z,102552.55
2018-01-14T05:12:07.231Z,102555.03
2018-01-14T05:13:12.182Z,102553.57
2018-01-14T05:14:16.321Z,102546.80
2018-01-14T05:15:20.651Z,102544.67
2018-01-14T05:16:24.943Z,102546.86
2018-01-14T05:17:29.166Z,102542.83
2018-01-14T05:18:33.388Z,102551.90
2018-01-14T05:19:37.842Z,102543.88
2018-01-14T05:20:42.013Z,102546.29
2018-01-14T05:21:47.021Z,102542.91
2018-01-14T05:22:51.267Z,102547.88
2018-01-14T05:23:55.553Z,102549.88
2018-01-14T05:24:59.782Z,102552.27
2018-01-14T05:26:03.937Z,102551.21
2018-01-14T05:27:08.144Z,102547.88
2018-01-14T05:28:12.270Z,102549.48
2018-01-14T05:29:16.511Z,102550.27
2018-01-14T05:30:20.867Z,102544.77
2018-01-14T05:31:25.004Z,102544.35
2018-01-14T05:32:29.526Z,102545.33
2018-01-14T05:33:33.693Z,102549.81
2018-01-14T05:34:37.938Z,102545.45
2018-01-14T05:35:43.138Z,102553.96
2018-01-14T05:36:48.271Z,102538.27
2018-01-14T05:37:52.772Z,102551.39
2018-01-14T05:38:56.954Z,102549.60
2018-01-14T05:40:01.246Z,102551.45
2018-01-14T05:41:05.448Z,102549.24
2018-01-14T05:42:09.618Z,102550.53
2018-01-14T05:43:13.801Z,102549.66
2018-01-14T05:44:18.229Z,102550.86
2018-01-14T05:45:22.745Z,102551.39
2018-01-14T05:46:26.983Z,102553.36
2018-01-14T05:47:31.192Z,102559.66
2018-01-14T05:48:35.325Z,102539.28
2018-01-14T05:49:40.702Z,102554.94
2018-01-14T05:50:45.629Z,102557.48
2018-01-14T05:51:50.635Z,102555.39
2018-01-14T05:52:54.941Z,102558.88
2018-01-14T05:53:59.102Z,102558.83
2018-01-14T05:55:03.382Z,102563.81
2018-01-14T05:56:07.911Z,102553.30
2018-01-14T05:57:12.024Z,102550.89
2018-01-14T05:58:16.169Z,102555.57
2018-01-14T05:59:20.466Z,102552.27
2018-01-14T06:00:25.305Z,102554.17
2018-01-14T06:01:29.463Z,102552.67
2018-01-14T06:02:33.770Z,102555.81
2018-01-14T06:03:37.970Z,102552.77
2018-01-14T06:04:42.162Z,102551.57
2018-01-14T06:05:46.330Z,102553.16
2018-01-14T06:06:51.454Z,102553.00
2018-01-14T06:07:55.705Z,102554.94
2018-01-14T06:09:00.204Z,102559.51
2018-01-14T06:10:04.508Z,102558.32
2018-01-14T06:11:08.765Z,102558.61
2018-01-14T06:12:12.903Z,102560.32
2018-01-14T06:13:17.028Z,102562.95
2018-01-14T06:14:21.167Z,102561.87
2018-01-14T06:15:26.476Z,102557.91
2018-01-14T06:16:30.782Z,102556.44
2018-01-14T06:17:34.901Z,102555.13
2018-01-14T06:18:39.048Z,102557.69
2018-01-14T06:19:43.422Z,102553.72
2018-01-14T06:20:47.570Z,102557.87
2018-01-14T06:21:53.035Z,102555.66
2018-01-14T06:22:57.214Z,102552.28
2018-01-14T06:24:01.461Z,102543.25
2018-01-14T06:25:05.648Z,102555.03
2018-01-14T06:26:09.932Z,102558.08
2018-01-14T06:27:14.128Z,102558.55
2018-01-14T06:28:18.634Z,102552.44
2018-01-14T06:29:22.870Z,102557.45
2018-01-14T06:30:28.366Z,102559.92
2018-01-14T06:31:33.246Z,102556.14
2018-01-14T06:32:37.514Z,102559.72
2018-01-14T06:33:41.774Z,102561.09
2018-01-14T06:34:46.740Z,102556.59
2018-01-14T06:35:51.493Z,102552.97
2018-01-14T06:36:55.703Z,102557.30
2018-01-14T06:37:59.968Z,102553.94
2018-01-14T06:39:04.289Z,102562.77
2018-01-14T06:40:08.445Z,102555.45
2018-01-14T06:41:12.975Z,102550.05
2018-01-14T06:42:17.175Z,102544.56
2018-01-14T06:43:21.477Z,102549.39
2018-01-14T06:44:25.675Z,102547.93
2018-01-14T06:45:30.110Z,102548.62
2018-01-14T06:46:34.631Z,102546.14
2018-01-14T06:47:38.774Z,102550.55
2018-01-14T06:48:43.275Z,102549.66
2018-01-14T06:49:47.961Z,102549.45
2018-01-14T06:50:52.146Z,102548.47
2018-01-14T06:51:56.401Z,102541.93
2018-01-14T06:53:00.971Z,102544.77
2018-01-14T06:54:05.210Z,102544.97
2018-01-14T06:55:09.436Z,102544.11
2018-01-14T06:56:13.590Z,102541.78
2018-01-14T06:57:17.859Z,102541.19
2018-01-14T06:58:22.059Z,102542.33
2018-01-14T06:59:26.350Z,102540.65
2018-01-14T07:00:30.778Z,102541.99
2018-01-14T07:01:34.995Z,102541.06
2018-01-14T07:02:39.222Z,102537.81
2018-01-14T07:03:43.726Z,102544.09
2018-01-14T07:04:47.978Z,102536.70
2018-01-14T07:05:52.178Z,102534.73
2018-01-14T07:06:56.313Z,102540.50
2018-01-14T07:08:00.528Z,102548.83
2018-01-14T07:09:05.310Z,102545.22
2018-01-14T07:10:09.920Z,102545.34
2018-01-14T07:11:14.186Z,102546.64
2018-01-14T07:12:18.334Z,102551.99
2018-01-14T07:13:22.612Z,102548.95
2018-01-14T07:14:26.836Z,102544.64
2018-01-14T07:15:31.375Z,102545.66
2018-01-14T07:16:35.903Z,102542.56
2018-01-14T07:17:40.078Z,102547.81
2018-01-14T07:18:44.255Z,102556.59
2018-01-14T07:19:49.385Z,102546.80
2018-01-14T07:20:53.639Z,102550.86
2018-01-14T07:21:57.807Z,102556.14
2018-01-14T07:23:02.019Z,102556.80
2018-01-14T07:24:06.192Z,102551.52
2018-01-14T07:25:10.577Z,102540.73
2018-01-14T07:26:14.770Z,102548.95
2018-01-14T07:27:19.002Z,102550.95
2018-01-14T07:28:23.196Z,102541.48
2018-01-14T07:29:27.638Z,102545.61
2018-01-14T07:30:32.203Z,102541.60
2018-01-14T07:31:36.522Z,102538.66
2018-01-14T07:32:40.711Z,102537.88
2018-01-14T07:33:44.955Z,102545.42
2018-01-14T07:34:49.184Z,102550.92
2018-01-14T07:35:53.794Z,102535.88
2018-01-14T07:36:58.050Z,102545.01
2018-01-14T07:38:02.262Z,102542.41
2018-01-14T07:39:06.623Z,102546.56
2018-01-14T07:40:10.755Z,102548.35
2018-01-14T07:41:15.016Z,102549.00
2018-01-14T07:42:19.655Z,102550.98
2018-01-14T07:43:23.872Z,102546.95
2018-01-14T07:44:28.036Z,102543.01
2018-01-14T07:45:32.700Z,102545.70
2018-01-14T07:46:37.395Z,102540.14
2018-01-14T07:47:41.603Z,102543.96
2018-01-14T07:48:46.863Z,102543.27
2018-01-14T07:49:51.900Z,102541.91
2018-01-14T07:50:56.141Z,102545.45
2018-01-14T07:52:00.411Z,102541.58
2018-01-14T07:53:04.632Z,102543.09
2018-01-14T07:54:08.832Z,102547.48
2018-01-14T07:55:13.055Z,102541.04
2018-01-14T07:56:17.197Z,102545.22
2018-01-14T07:57:21.326Z,102538.67
2018-01-14T07:58:25.611Z,102543.66
2018-01-14T07:59:30.616Z,102545.34
2018-01-14T08:00:35.521Z,102544.11
2018-01-14T08:01:39.727Z,102546.77
2018-01-14T08:02:44.622Z,102541.84
2018-01-14T08:03:48.927Z,102544.59
2018-01-14T08:04:53.686Z,102545.99
2018-01-14T08:05:57.906Z,102545.09
2018-01-14T08:07:02.426Z,102550.08
2018-01-14T08:08:06.661Z,102546.35
2018-01-14T08:09:10.818Z,102540.08
2018-01-14T08:10:14.996Z,102546.11
2018-01-14T08:11:19.731Z,102545.09
2018-01-14T08:12:24.219Z,102553.62
2018-01-14T08:13:28.558Z,102549.81
2018-01-14T08:14:32.790Z,102550.67
2018-01-14T08:15:37.088Z,102548.17
2018-01-14T08:16:41.848Z,102543.94
2018-01-14T08:17:46.882Z,102547.58
2018-01-14T08:18:52.396Z,102551.00
2018-01-14T08:19:56.648Z,102543.72
2018-01-14T08:21:00.890Z,102543.78
2018-01-14T08:22:05.218Z,102555.81
2018-01-14T08:23:09.548Z,102551.24
2018-01-14T08:24:13.791Z,102547.42
2018-01-14T08:25:18.251Z,102543.58
2018-01-14T08:26:22.526Z,102544.17
2018-01-14T08:27:26.742Z,102541.34
2018-01-14T08:28:31.088Z,102548.02
2018-01-14T08:29:35.285Z,102543.66
2018-01-14T08:30:39.653Z,102546.41
2018-01-14T08:31:45.043Z,102543.52
2018-01-14T08:32:50.400Z,102548.29
2018-01-14T08:33:55.561Z,102547.52
2018-01-14T08:34:59.896Z,102544.89
2018-01-14T08:36:05.130Z,102546.27
2018-01-14T08:37:09.395Z,102548.05
2018-01-14T08:38:13.858Z,102539.19
2018-01-14T08:39:18.151Z,102547.16
2018-01-14T08:40:22.381Z,102548.83
2018-01-14T08:41:26.611Z,102548.47
2018-01-14T08:42:30.852Z,102546.35
2018-01-14T08:43:35.145Z,102547.16
2018-01-14T08:44:40.014Z,102541.16
2018-01-14T08:45:45.068Z,102535.94
2018-01-14T08:46:50.288Z,102542.86
2018-01-14T08:47:55.459Z,102539.78
2018-01-14T08:48:59.730Z,102537.84
2018-01-14T08:50:03.996Z,102540.08
2018-01-14T08:51:08.554Z,102538.73
2018-01-14T08:52:12.815Z,102542.86
2018-01-14T08:53:17.066Z,102533.94
2018-01-14T08:54:21.213Z,102536.73
2018-01-14T08:55:25.533Z,102538.71
2018-01-14T08:56:29.837Z,102537.66
2018-01-14T08:57:34.385Z,102529.13
2018-01-14T08:58:38.596Z,102534.92
2018-01-14T08:59:42.788Z,102535.13
2018-01-14T09:00:48.254Z,102540.70
2018-01-14T09:01:53.431Z,102529.22
2018-01-14T09:02:57.686Z,102535.13
2018-01-14T09:04:01.932Z,102538.05
2018-01-14T09:05:06.207Z,102536.77
2018-01-14T09:06:10.380Z,102537.78
2018-01-14T09:07:14.737Z,102538.20
2018-01-14T09:08:18.972Z,102536.11
2018-01-14T09:09:23.163Z,102534.16
2018-01-14T09:10:27.662Z,102536.70
2018-01-14T09:11:31.934Z,102529.03
2018-01-14T09:12:36.367Z,102527.72
2018-01-14T09:13:40.567Z,102524.02
2018-01-14T09:14:44.739Z,102531.96
2018-01-14T09:15:49.264Z,102528.44
2018-01-14T09:16:54.340Z,102517.55
2018-01-14T09:17:58.651Z,102518.17
2018-01-14T09:19:02.924Z,102522.14
2018-01-14T09:20:07.649Z,102525.07
2018-01-14T09:21:11.880Z,102533.57
2018-01-14T09:22:16.774Z,102518.56
2018-01-14T09:23:21.499Z,102511.63
2018-01-14T09:24:26.387Z,102526.71
2018-01-14T09:25:30.609Z,102520.27
2018-01-14T09:26:34.838Z,102518.48
2018-01-14T09:27:39.216Z,102518.70
2018-01-14T09:28:44.437Z,102516.55
2018-01-14T09:29:49.034Z,102511.75
2018-01-14T09:30:56.103Z,102515.08
2018-01-14T09:32:00.474Z,102516.59
2018-01-14T09:33:05.189Z,102519.24
2018-01-14T09:34:09.776Z,102510.63
2018-01-14T09:35:14.042Z,102508.30
2018-01-14T09:36:18.314Z,102510.30
2018-01-14T09:37:22.624Z,102528.16
2018-01-14T09:38:27.011Z,102530.41
2018-01-14T09:39:31.318Z,102522.40
2018-01-14T09:40:36.838Z,102523.38
2018-01-14T09:41:41.059Z,102514.33
2018-01-14T09:42:46.520Z,102519.78
2018-01-14T09:43:50.786Z,102514.30
2018-01-14T09:44:55.086Z,102518.66
2018-01-14T09:45:59.355Z,102519.80
2018-01-14T09:47:03.941Z,102517.55
2018-01-14T09:48:08.339Z,102518.63
2018-01-14T09:49:12.784Z,102525.14
2018-01-14T09:50:17.144Z,102530.77
2018-01-14T09:51:21.439Z,102511.04
2018-01-14T09:52:25.759Z,102512.80
2018-01-14T09:53:31.036Z,102515.93
2018-01-14T09:54:35.249Z,102515.53
2018-01-14T09:55:39.690Z,102519.16
2018-01-14T09:56:43.979Z,102513.95
2018-01-14T09:57:48.353Z,102512.28
2018-01-14T09:58:53.348Z,102513.44
2018-01-14T09:59:57.905Z,102516.14
2018-01-14T10:01:02.708Z,102509.77
2018-01-14T10:02:06.994Z,102517.44
2018-01-14T10:03:11.254Z,102510.15
2018-01-14T10:04:15.529Z,102517.44
2018-01-14T10:05:19.853Z,102513.45
2018-01-14T10:06:24.583Z,102525.80
2018-01-14T10:07:28.853Z,102516.06
2018-01-14T10:08:33.067Z,102523.53
2018-01-14T10:09:37.341Z,102526.27
2018-01-14T10:10:41.575Z,102525.09
2018-01-14T10:11:46.905Z,102522.36
2018-01-14T10:12:52.240Z,102525.37
2018-01-14T10:13:56.540Z,102529.42
2018-01-14T10:15:00.903Z,102523.07
2018-01-14T10:16:05.374Z,102519.11
2018-01-14T10:17:10.875Z,102518.93
2018-01-14T10:18:15.214Z,102520.06
2018-01-14T10:19:19.784Z,102522.22
2018-01-14T10:20:24.056Z,102521.84
2018-01-14T10:21:28.359Z,102509.52
2018-01-14T10:22:32.659Z,102523.96
2018-01-14T10:23:36.995Z,102515.50
2018-01-14T10:24:41.243Z,102513.03
2018-01-14T10:25:46.696Z,102513.30
2018-01-14T10:26:51.925Z,102515.41
2018-01-14T10:27:56.263Z,102518.70
2018-01-14T10:29:00.506Z,102518.72
2018-01-14T10:30:07.043Z,102517.13
2018-01-14T10:31:13.074Z,102512.72
2018-01-14T10:32:17.400Z,102519.97
2018-01-14T10:33:21.660Z,102517.88
2018-01-14T10:34:26.041Z,102515.80
2018-01-14T10:35:30.267Z,102515.08
2018-01-14T10:36:34.523Z,102513.98
2018-01-14T10:37:38.827Z,102504.73
2018-01-14T10:38:43.264Z,102514.80
2018-01-14T10:39:47.525Z,102501.75
2018-01-14T10:40:52.640Z,102487.32
2018-01-14T10:41:57.051Z,102501.89
2018-01-14T10:43:01.964Z,102501.75
2018-01-14T10:44:06.286Z,102506.59
2018-01-14T10:45:12.570Z,102498.69
2018-01-14T10:46:16.826Z,102489.39
2018-01-14T10:47:21.205Z,102493.17
2018-01-14T10:48:25.651Z,102498.05
2018-01-14T10:49:29.983Z,102492.27
2018-01-14T10:50:34.292Z,102491.16
2018-01-14T10:51:38.654Z,102492.89
2018-01-14T10:52:43.303Z,102490.47
2018-01-14T10:53:48.872Z,102486.74
2018-01-14T10:54:54.068Z,102488.19
2018-01-14T10:55:59.343Z,102486.19
2018-01-14T10:57:03.595Z,102480.21
2018-01-14T10:58:08.011Z,102484.70
2018-01-14T10:59:12.377Z,102481.94
2018-01-14T11:00:17.314Z,102481.78
2018-01-14T11:01:25.580Z,102487.27
2018-01-14T11:02:29.985Z,102484.75
2018-01-14T11:03:34.639Z,102475.41
2018-01-14T11:04:39.010Z,102481.78
2018-01-14T11:05:43.513Z,102478.08
2018-01-14T11:06:48.374Z,102477.08
2018-01-14T11:07:53.039Z,102474.56
2018-01-14T11:08:57.993Z,102468.17
2018-01-14T11:10:02.291Z,102471.39
2018-01-14T11:11:06.665Z,102465.88
2018-01-14T11:12:11.074Z,102465.73
2018-01-14T11:13:15.991Z,102461.53
2018-01-14T11:14:20.342Z,102461.77
2018-01-14T11:15:25.435Z,102455.19
2018-01-14T11:16:29.783Z,102454.58
2018-01-14T11:17:34.130Z,102460.61
2018-01-14T11:18:39.002Z,102464.08
2018-01-14T11:19:43.393Z,102451.63
2018-01-14T11:20:48.107Z,102444.36
2018-01-14T11:21:52.574Z,102441.21
2018-01-14T11:22:57.898Z,102440.50
2018-01-14T11:24:02.379Z,102446.57
2018-01-14T11:25:08.007Z,102436.05
2018-01-14T11:26:12.576Z,102434.22
2018-01-14T11:27:18.093Z,102440.55
2018-01-14T11:28:22.516Z,102439.47
2018-01-14T11:29:35.493Z,102435.80
2018-01-14T11:30:40.654Z,102433.84
2018-01-14T11:31:45.263Z,102432.14
2018-01-14T11:32:49.963Z,102433.47
2018-01-14T11:33:54.426Z,102430.47
2018-01-14T11:34:59.666Z,102421.70
2018-01-14T11:36:04.227Z,102427.50
2018-01-14T11:37:08.980Z,102424.13
2018-01-14T11:38:13.910Z,102421.63
2018-01-14T11:39:20.224Z,102435.94
2018-01-14T11:40:25.633Z,102416.34
2018-01-14T11:41:31.208Z,102422.48
2018-01-14T11:42:36.920Z,102420.39
2018-01-14T11:43:42.379Z,102418.48
2018-01-14T11:44:47.856Z,102421.02
2018-01-14T11:45:52.658Z,102416.15
2018-01-14T11:46:57.320Z,102414.42
2018-01-14T11:48:02.062Z,102412.91
2018-01-14T11:49:08.471Z,102410.58
2018-01-14T11:50:13.132Z,102407.87
2018-01-14T11:51:18.423Z,102408.78
2018-01-14T11:52:22.899Z,102403.53
2018-01-14T11:53:27.796Z,102422.28
2018-01-14T11:54:32.218Z,102411.25
2018-01-14T11:55:38.517Z,102414.27
2018-01-14T11:56:43.684Z,102405.48
2018-01-14T11:57:48.152Z,102405.98
2018-01-14T11:58:52.960Z,102404.05
2018-01-14T11:59:58.557Z,102395.31
2018-01-14T12:01:03.129Z,102396.06
2018-01-14T12:02:07.953Z,102390.73
2018-01-14T12:03:12.495Z,102390.40
2018-01-14T12:04:17.206Z,102387.81
2018-01-14T12:05:21.894Z,102383.83
2018-01-14T12:06:26.365Z,102385.17
2018-01-14T12:07:30.973Z,102378.20
2018-01-14T12:08:38.140Z,102378.95
2018-01-14T12:09:43.737Z,102374.61
2018-01-14T12:10:48.947Z,102383.12
2018-01-14T12:11:54.976Z,102382.44
2018-01-14T12:13:00.240Z,102381.67
2018-01-14T12:14:06.533Z,102384.64
2018-01-14T12:15:13.611Z,102380.13
2018-01-14T12:16:20.627Z,102380.62
2018-01-14T12:17:25.651Z,102381.55